sensor_id;sensor_type;location;lat;lon;timestamp;pressure;altitude;pressure_sealevel;temperature;humidity
35619;BME280;21743;55.786;37.168;2022-08-19T00:00:37;100280.72;;;20.48;58.04
35619;BME280;21743;55.786;37.168;2022-08-19T00:03:04;100271.97;;;20.41;58.42
35619;BME280;21743;55.786;37.168;2022-08-19T00:05:30;100277.88;;;20.43;58.12
35619;BME280;21743;55.786;37.168;2022-08-19T00:07:57;100277.88;;;20.43;58.13
35619;BME280;21743;55.786;37.168;2022-08-19T00:10:23;100283.53;;;20.40;58.16
35619;BME280;21743;55.786;37.168;2022-08-19T00:12:50;100290.09;;;20.44;58.61
35619;BME280;21743;55.786;37.168;2022-08-19T00:15:19;100301.03;;;20.41;58.24
35619;BME280;21743;55.786;37.168;2022-08-19T00:17:45;100303.06;;;20.39;58.68
35619;BME280;21743;55.786;37.168;2022-08-19T00:20:14;100297.56;;;20.41;58.42
35619;BME280;21743;55.786;37.168;2022-08-19T00:22:44;100299.13;;;20.35;58.52
35619;BME280;21743;55.786;37.168;2022-08-19T00:25:10;100300.41;;;20.39;58.86
35619;BME280;21743;55.786;37.168;2022-08-19T00:27:36;100287.19;;;20.39;59.18
35619;BME280;21743;55.786;37.168;2022-08-19T00:30:05;100286.38;;;20.39;59.13
35619;BME280;21743;55.786;37.168;2022-08-19T00:32:31;100289.47;;;20.42;59.04
35619;BME280;21743;55.786;37.168;2022-08-19T00:34:58;100280.47;;;20.36;59.02
35619;BME280;21743;55.786;37.168;2022-08-19T00:37:24;100283.91;;;20.37;59.26
35619;BME280;21743;55.786;37.168;2022-08-19T00:39:52;100297.97;;;20.38;59.19
35619;BME280;21743;55.786;37.168;2022-08-19T00:42:19;100305.88;;;20.38;59.33
35619;BME280;21743;55.786;37.168;2022-08-19T00:44:46;100306.72;;;20.38;59.30
35619;BME280;21743;55.786;37.168;2022-08-19T00:47:11;100303.19;;;20.31;59.20
35619;BME280;21743;55.786;37.168;2022-08-19T00:52:18;100307.22;;;20.27;59.34
35619;BME280;21743;55.786;37.168;2022-08-19T00:54:47;100315.78;;;20.29;59.24
35619;BME280;21743;55.786;37.168;2022-08-19T00:57:17;100306.59;;;20.25;58.86
35619;BME280;21743;55.786;37.168;2022-08-19T00:59:46;100309.47;;;20.30;58.81
35619;BME280;21743;55.786;37.168;2022-08-19T01:02:14;100301.13;;;20.33;58.56
35619;BME280;21743;55.786;37.168;2022-08-19T01:04:40;100310.34;;;20.37;58.48
35619;BME280;21743;55.786;37.168;2022-08-19T01:07:07;100308.72;;;20.36;58.83
35619;BME280;21743;55.786;37.168;2022-08-19T01:09:33;100311.22;;;20.44;58.43
35619;BME280;21743;55.786;37.168;2022-08-19T01:11:59;100303.88;;;20.40;58.29
35619;BME280;21743;55.786;37.168;2022-08-19T01:14:25;100322.81;;;20.43;58.56
35619;BME280;21743;55.786;37.168;2022-08-19T01:16:53;100311.72;;;20.33;58.83
35619;BME280;21743;55.786;37.168;2022-08-19T01:19:41;100315.81;;;20.35;58.58
35619;BME280;21743;55.786;37.168;2022-08-19T01:22:30;100326.53;;;20.27;58.83
35619;BME280;21743;55.786;37.168;2022-08-19T01:24:58;100326.47;;;20.21;58.56
35619;BME280;21743;55.786;37.168;2022-08-19T01:27:23;100316.97;;;20.26;58.51
35619;BME280;21743;55.786;37.168;2022-08-19T01:29:49;100319.03;;;20.31;58.22
35619;BME280;21743;55.786;37.168;2022-08-19T01:32:16;100310.50;;;20.35;58.25
35619;BME280;21743;55.786;37.168;2022-08-19T01:34:42;100323.81;;;20.42;57.98
35619;BME280;21743;55.786;37.168;2022-08-19T01:37:14;100311.31;;;20.29;58.36
35619;BME280;21743;55.786;37.168;2022-08-19T01:39:41;100327.38;;;20.34;58.77
35619;BME280;21743;55.786;37.168;2022-08-19T01:42:08;100323.28;;;20.32;57.89
35619;BME280;21743;55.786;37.168;2022-08-19T01:44:38;100319.63;;;20.26;57.86
35619;BME280;21743;55.786;37.168;2022-08-19T01:47:07;100332.03;;;20.32;58.27
35619;BME280;21743;55.786;37.168;2022-08-19T01:49:35;100341.38;;;20.28;57.80
35619;BME280;21743;55.786;37.168;2022-08-19T01:52:03;100339.56;;;20.29;58.10
35619;BME280;21743;55.786;37.168;2022-08-19T01:54:30;100346.50;;;20.30;57.56
35619;BME280;21743;55.786;37.168;2022-08-19T01:57:15;100323.06;;;20.27;57.88
35619;BME280;21743;55.786;37.168;2022-08-19T01:59:42;100331.75;;;20.21;58.09
35619;BME280;21743;55.786;37.168;2022-08-19T02:02:09;100348.63;;;20.20;58.43
35619;BME280;21743;55.786;37.168;2022-08-19T02:04:35;100342.28;;;20.14;58.31
35619;BME280;21743;55.786;37.168;2022-08-19T02:07:03;100337.56;;;20.10;58.61
35619;BME280;21743;55.786;37.168;2022-08-19T02:09:30;100354.06;;;20.12;58.57
35619;BME280;21743;55.786;37.168;2022-08-19T02:11:56;100349.16;;;20.09;58.87
35619;BME280;21743;55.786;37.168;2022-08-19T02:14:22;100339.97;;;20.05;59.09
35619;BME280;21743;55.786;37.168;2022-08-19T02:16:48;100345.44;;;20.03;59.22
35619;BME280;21743;55.786;37.168;2022-08-19T02:19:14;100350.91;;;20.01;59.32
35619;BME280;21743;55.786;37.168;2022-08-19T02:21:40;100342.75;;;19.96;59.51
35619;BME280;21743;55.786;37.168;2022-08-19T02:24:06;100343.13;;;19.93;59.74
35619;BME280;21743;55.786;37.168;2022-08-19T02:26:32;100340.66;;;19.92;59.90
35619;BME280;21743;55.786;37.168;2022-08-19T02:28:58;100328.03;;;19.87;59.49
35619;BME280;21743;55.786;37.168;2022-08-19T02:31:26;100336.22;;;19.92;59.56
35619;BME280;21743;55.786;37.168;2022-08-19T02:33:54;100344.75;;;19.94;59.13
35619;BME280;21743;55.786;37.168;2022-08-19T02:36:21;100337.03;;;19.93;58.83
35619;BME280;21743;55.786;37.168;2022-08-19T02:38:47;100348.66;;;19.98;58.88
35619;BME280;21743;55.786;37.168;2022-08-19T02:41:21;100351.13;;;20.00;59.00
35619;BME280;21743;55.786;37.168;2022-08-19T02:43:47;100353.69;;;19.93;59.20
35619;BME280;21743;55.786;37.168;2022-08-19T02:46:18;100341.69;;;19.91;59.52
35619;BME280;21743;55.786;37.168;2022-08-19T02:48:51;100345.22;;;19.98;59.53
35619;BME280;21743;55.786;37.168;2022-08-19T02:51:25;100346.84;;;19.99;59.50
35619;BME280;21743;55.786;37.168;2022-08-19T02:53:52;100341.13;;;19.95;59.47
35619;BME280;21743;55.786;37.168;2022-08-19T02:56:19;100346.84;;;19.99;59.59
35619;BME280;21743;55.786;37.168;2022-08-19T02:58:46;100362.88;;;19.97;59.87
35619;BME280;21743;55.786;37.168;2022-08-19T03:01:26;100355.78;;;19.98;59.69
35619;BME280;21743;55.786;37.168;2022-08-19T03:03:52;100356.72;;;19.90;59.43
35619;BME280;21743;55.786;37.168;2022-08-19T03:06:19;100368.16;;;19.97;59.41
35619;BME280;21743;55.786;37.168;2022-08-19T03:08:46;100362.69;;;19.99;59.08
35619;BME280;21743;55.786;37.168;2022-08-19T03:11:15;100358.66;;;20.03;59.03
35619;BME280;21743;55.786;37.168;2022-08-19T03:13:41;100359.91;;;20.07;58.54
35619;BME280;21743;55.786;37.168;2022-08-19T03:16:09;100354.63;;;20.07;58.45
35619;BME280;21743;55.786;37.168;2022-08-19T03:18:35;100360.72;;;20.08;57.91
35619;BME280;21743;55.786;37.168;2022-08-19T03:21:01;100369.28;;;20.10;57.90
35619;BME280;21743;55.786;37.168;2022-08-19T03:23:27;100361.16;;;20.11;58.25
35619;BME280;21743;55.786;37.168;2022-08-19T03:25:53;100361.16;;;20.11;57.94
35619;BME280;21743;55.786;37.168;2022-08-19T03:28:19;100358.53;;;20.11;58.82
35619;BME280;21743;55.786;37.168;2022-08-19T03:30:58;100356.88;;;20.10;58.86
35619;BME280;21743;55.786;37.168;2022-08-19T03:33:26;100361.16;;;20.11;58.50
35619;BME280;21743;55.786;37.168;2022-08-19T03:36:02;100369.72;;;20.13;59.03
35619;BME280;21743;55.786;37.168;2022-08-19T03:38:28;100356.44;;;20.07;59.07
35619;BME280;21743;55.786;37.168;2022-08-19T03:40:54;100370.91;;;20.11;59.12
35619;BME280;21743;55.786;37.168;2022-08-19T03:43:20;100367.47;;;20.10;59.28
35619;BME280;21743;55.786;37.168;2022-08-19T03:45:46;100377.47;;;20.15;59.53
35619;BME280;21743;55.786;37.168;2022-08-19T03:48:14;100369.72;;;20.13;59.62
35619;BME280;21743;55.786;37.168;2022-08-19T03:50:42;100370.38;;;20.15;59.13
35619;BME280;21743;55.786;37.168;2022-08-19T03:53:07;100367.31;;;20.18;58.75
35619;BME280;21743;55.786;37.168;2022-08-19T03:55:39;100376.88;;;20.19;58.60
35619;BME280;21743;55.786;37.168;2022-08-19T03:58:05;100375.25;;;20.18;58.73
35619;BME280;21743;55.786;37.168;2022-08-19T04:00:32;100355.31;;;20.16;59.23
35619;BME280;21743;55.786;37.168;2022-08-19T04:02:59;100364.09;;;20.23;58.46
35619;BME280;21743;55.786;37.168;2022-08-19T04:05:27;100358.19;;;20.21;58.67
35619;BME280;21743;55.786;37.168;2022-08-19T04:07:54;100366.00;;;20.29;57.90
35619;BME280;21743;55.786;37.168;2022-08-19T04:10:24;100359.25;;;20.26;57.65
35619;BME280;21743;55.786;37.168;2022-08-19T04:12:50;100358.25;;;20.27;57.48
35619;BME280;21743;55.786;37.168;2022-08-19T04:15:16;100360.13;;;20.33;57.66
35619;BME280;21743;55.786;37.168;2022-08-19T04:17:42;100361.22;;;20.39;57.48
35619;BME280;21743;55.786;37.168;2022-08-19T04:20:08;100365.75;;;20.45;57.47
35619;BME280;21743;55.786;37.168;2022-08-19T04:22:33;100370.44;;;20.50;56.62
35619;BME280;21743;55.786;37.168;2022-08-19T04:24:59;100359.47;;;20.53;57.01
35619;BME280;21743;55.786;37.168;2022-08-19T04:27:25;100368.09;;;20.61;56.60
35619;BME280;21743;55.786;37.168;2022-08-19T04:29:51;100372.16;;;20.64;56.88
35619;BME280;21743;55.786;37.168;2022-08-19T04:32:20;100368.94;;;20.68;56.40
35619;BME280;21743;55.786;37.168;2022-08-19T04:34:46;100365.66;;;20.66;56.45
35619;BME280;21743;55.786;37.168;2022-08-19T04:37:12;100365.09;;;20.71;56.58
35619;BME280;21743;55.786;37.168;2022-08-19T04:39:38;100367.50;;;20.66;56.36
35619;BME280;21743;55.786;37.168;2022-08-19T04:42:23;100378.25;;;20.64;55.92
35619;BME280;21743;55.786;37.168;2022-08-19T04:45:11;100384.81;;;20.68;55.88
35619;BME280;21743;55.786;37.168;2022-08-19T04:47:38;100381.34;;;20.68;55.84
35619;BME280;21743;55.786;37.168;2022-08-19T04:50:05;100378.31;;;20.71;56.30
35619;BME280;21743;55.786;37.168;2022-08-19T04:52:31;100394.84;;;20.80;56.45
35619;BME280;21743;55.786;37.168;2022-08-19T04:54:58;100394.66;;;20.81;56.40
35619;BME280;21743;55.786;37.168;2022-08-19T04:57:23;100391.44;;;20.86;56.09
35619;BME280;21743;55.786;37.168;2022-08-19T04:59:54;100392.88;;;20.88;55.95
35619;BME280;21743;55.786;37.168;2022-08-19T05:02:20;100387.19;;;20.91;55.65
35619;BME280;21743;55.786;37.168;2022-08-19T05:04:50;100385.16;;;20.93;55.53
35619;BME280;21743;55.786;37.168;2022-08-19T05:07:16;100379.47;;;20.96;54.71
35619;BME280;21743;55.786;37.168;2022-08-19T05:09:42;100395.19;;;21.04;55.25
35619;BME280;21743;55.786;37.168;2022-08-19T05:12:08;100392.13;;;21.01;55.22
35619;BME280;21743;55.786;37.168;2022-08-19T05:14:33;100383.78;;;21.04;55.18
35619;BME280;21743;55.786;37.168;2022-08-19T05:17:02;100384.41;;;21.06;55.49
35619;BME280;21743;55.786;37.168;2022-08-19T05:19:27;100395.03;;;21.13;55.27
35619;BME280;21743;55.786;37.168;2022-08-19T05:22:11;100381.59;;;21.08;55.06
35619;BME280;21743;55.786;37.168;2022-08-19T05:24:56;100383.22;;;21.15;55.17
35619;BME280;21743;55.786;37.168;2022-08-19T05:27:22;100377.38;;;21.20;54.91
35619;BME280;21743;55.786;37.168;2022-08-19T05:29:48;100381.66;;;21.21;54.68
35619;BME280;21743;55.786;37.168;2022-08-19T05:32:14;100385.34;;;21.26;54.70
35619;BME280;21743;55.786;37.168;2022-08-19T05:34:39;100381.47;;;21.29;55.11
35619;BME280;21743;55.786;37.168;2022-08-19T05:37:05;100387.63;;;21.36;54.96
35619;BME280;21743;55.786;37.168;2022-08-19T05:39:34;100381.94;;;21.46;54.53
35619;BME280;21743;55.786;37.168;2022-08-19T05:42:03;100384.00;;;21.50;54.75
35619;BME280;21743;55.786;37.168;2022-08-19T05:44:33;100380.97;;;21.53;54.82
35619;BME280;21743;55.786;37.168;2022-08-19T05:47:00;100379.34;;;21.52;54.15
35619;BME280;21743;55.786;37.168;2022-08-19T05:49:28;100388.09;;;21.59;54.13
35619;BME280;21743;55.786;37.168;2022-08-19T05:51:55;100387.50;;;21.64;53.98
35619;BME280;21743;55.786;37.168;2022-08-19T05:54:22;100379.38;;;21.65;54.15
35619;BME280;21743;55.786;37.168;2022-08-19T05:56:50;100378.34;;;21.66;54.27
35619;BME280;21743;55.786;37.168;2022-08-19T05:59:16;100385.47;;;21.72;53.71
35619;BME280;21743;55.786;37.168;2022-08-19T06:01:44;100388.13;;;21.72;54.07
35619;BME280;21743;55.786;37.168;2022-08-19T06:04:12;100384.03;;;21.70;54.92
35619;BME280;21743;55.786;37.168;2022-08-19T06:06:39;100391.81;;;21.78;55.24
35619;BME280;21743;55.786;37.168;2022-08-19T06:09:06;100392.03;;;21.83;55.15
35619;BME280;21743;55.786;37.168;2022-08-19T06:14:09;100400.25;;;22.08;54.71
35619;BME280;21743;55.786;37.168;2022-08-19T06:16:38;100398.00;;;22.18;54.30
35619;BME280;21743;55.786;37.168;2022-08-19T06:19:06;100387.59;;;22.17;53.87
35619;BME280;21743;55.786;37.168;2022-08-19T06:21:35;100399.63;;;22.32;54.00
35619;BME280;21743;55.786;37.168;2022-08-19T06:24:06;100398.41;;;22.35;53.87
35619;BME280;21743;55.786;37.168;2022-08-19T06:26:35;100399.84;;;22.37;53.96
35619;BME280;21743;55.786;37.168;2022-08-19T06:29:02;100392.94;;;22.43;54.17
35619;BME280;21743;55.786;37.168;2022-08-19T06:31:30;100397.38;;;22.49;54.68
35619;BME280;21743;55.786;37.168;2022-08-19T06:34:01;100401.88;;;22.55;53.37
35619;BME280;21743;55.786;37.168;2022-08-19T06:36:33;100402.09;;;22.54;53.55
35619;BME280;21743;55.786;37.168;2022-08-19T06:39:02;100395.16;;;22.53;53.26
35619;BME280;21743;55.786;37.168;2022-08-19T06:41:29;100399.22;;;22.62;53.50
35619;BME280;21743;55.786;37.168;2022-08-19T06:43:56;100390.88;;;22.58;53.53
35619;BME280;21743;55.786;37.168;2022-08-19T06:46:23;100403.69;;;22.68;53.49
35619;BME280;21743;55.786;37.168;2022-08-19T06:48:49;100400.22;;;22.67;52.65
35619;BME280;21743;55.786;37.168;2022-08-19T06:51:16;100401.06;;;22.68;52.99
35619;BME280;21743;55.786;37.168;2022-08-19T06:53:46;100401.88;;;22.75;53.89
35619;BME280;21743;55.786;37.168;2022-08-19T06:56:15;100402.28;;;22.72;53.10
35619;BME280;21743;55.786;37.168;2022-08-19T06:58:42;100387.56;;;22.63;53.55
35619;BME280;21743;55.786;37.168;2022-08-19T07:01:08;100403.69;;;22.68;53.45
35619;BME280;21743;55.786;37.168;2022-08-19T07:03:37;100401.25;;;22.66;52.87
35619;BME280;21743;55.786;37.168;2022-08-19T07:06:09;100403.50;;;22.63;52.67
35619;BME280;21743;55.786;37.168;2022-08-19T07:08:35;100404.53;;;22.55;53.21
35619;BME280;21743;55.786;37.168;2022-08-19T07:11:10;100395.97;;;22.53;53.12
35619;BME280;21743;55.786;37.168;2022-08-19T07:13:37;100400.25;;;22.61;53.27
35619;BME280;21743;55.786;37.168;2022-08-19T07:16:08;100400.84;;;22.69;53.70
35619;BME280;21743;55.786;37.168;2022-08-19T07:18:35;100403.72;;;22.81;53.07
35619;BME280;21743;55.786;37.168;2022-08-19T07:21:08;100396.16;;;22.91;52.32
35619;BME280;21743;55.786;37.168;2022-08-19T07:23:34;100394.88;;;23.00;52.58
35619;BME280;21743;55.786;37.168;2022-08-19T07:26:09;100396.47;;;23.08;52.42
35619;BME280;21743;55.786;37.168;2022-08-19T07:28:35;100400.34;;;23.12;52.32
35619;BME280;21743;55.786;37.168;2022-08-19T07:31:06;100400.34;;;23.19;52.28
35619;BME280;21743;55.786;37.168;2022-08-19T07:33:32;100404.63;;;23.20;51.53
35619;BME280;21743;55.786;37.168;2022-08-19T07:35:59;100397.47;;;23.20;51.79
35619;BME280;21743;55.786;37.168;2022-08-19T07:38:25;100399.88;;;23.35;51.34
35619;BME280;21743;55.786;37.168;2022-08-19T07:40:51;100399.00;;;23.41;51.48
35619;BME280;21743;55.786;37.168;2022-08-19T07:43:17;100405.94;;;23.48;51.39
35619;BME280;21743;55.786;37.168;2022-08-19T07:45:48;100404.31;;;23.47;51.56
35619;BME280;21743;55.786;37.168;2022-08-19T07:48:14;100401.63;;;23.54;50.74
35619;BME280;21743;55.786;37.168;2022-08-19T07:50:40;100404.66;;;23.64;50.92
35619;BME280;21743;55.786;37.168;2022-08-19T07:53:05;100401.75;;;23.72;50.60
35619;BME280;21743;55.786;37.168;2022-08-19T07:55:31;100406.22;;;23.78;50.68
35619;BME280;21743;55.786;37.168;2022-08-19T07:57:57;100413.31;;;23.84;50.72
35619;BME280;21743;55.786;37.168;2022-08-19T08:00:23;100405.91;;;23.93;51.04
35619;BME280;21743;55.786;37.168;2022-08-19T08:02:49;100405.22;;;24.04;50.93
35619;BME280;21743;55.786;37.168;2022-08-19T08:05:14;100398.22;;;24.10;49.99
35619;BME280;21743;55.786;37.168;2022-08-19T08:07:59;100399.66;;;24.12;50.16
35619;BME280;21743;55.786;37.168;2022-08-19T08:10:43;100409.19;;;24.20;49.44
35619;BME280;21743;55.786;37.168;2022-08-19T08:13:09;100411.84;;;24.27;49.03
35619;BME280;21743;55.786;37.168;2022-08-19T08:15:35;100409.53;;;24.30;49.56
35619;BME280;21743;55.786;37.168;2022-08-19T08:18:02;100403.41;;;24.30;49.09
35619;BME280;21743;55.786;37.168;2022-08-19T08:20:28;100416.66;;;24.36;47.85
35619;BME280;21743;55.786;37.168;2022-08-19T08:22:54;100400.91;;;24.35;47.63
35619;BME280;21743;55.786;37.168;2022-08-19T08:25:38;100403.75;;;24.40;48.29
35619;BME280;21743;55.786;37.168;2022-08-19T08:28:04;100406.41;;;24.40;47.38
35619;BME280;21743;55.786;37.168;2022-08-19T08:30:31;100424.44;;;24.38;47.15
35619;BME280;21743;55.786;37.168;2022-08-19T08:32:58;100410.31;;;24.37;46.45
35619;BME280;21743;55.786;37.168;2022-08-19T08:35:25;100415.63;;;24.37;44.95
35619;BME280;21743;55.786;37.168;2022-08-19T08:37:52;100418.50;;;24.36;44.88
35619;BME280;21743;55.786;37.168;2022-08-19T08:40:28;100419.53;;;24.35;44.08
35619;BME280;21743;55.786;37.168;2022-08-19T08:45:35;100413.00;;;24.31;42.42
35619;BME280;21743;55.786;37.168;2022-08-19T08:48:13;100421.00;;;24.31;43.07
35619;BME280;21743;55.786;37.168;2022-08-19T08:50:45;100414.28;;;24.28;42.23
35619;BME280;21743;55.786;37.168;2022-08-19T08:53:17;100409.53;;;24.30;42.05
35619;BME280;21743;55.786;37.168;2022-08-19T08:55:44;100410.13;;;24.32;42.61
35619;BME280;21743;55.786;37.168;2022-08-19T08:59:21;100423.78;;;24.42;43.05
35619;BME280;21743;55.786;37.168;2022-08-19T09:01:27;100414.44;;;24.58;43.22
35619;BME280;21743;55.786;37.168;2022-08-19T09:03:53;100407.50;;;24.75;43.25
35619;BME280;21743;55.786;37.168;2022-08-19T09:06:35;100419.38;;;24.98;42.96
35619;BME280;21743;55.786;37.168;2022-08-19T09:09:27;100415.75;;;25.29;43.01
35619;BME280;21743;55.786;37.168;2022-08-19T09:12:20;100405.19;;;25.52;41.93
35619;BME280;21743;55.786;37.168;2022-08-19T09:15:00;100401.63;;;25.76;42.25
35619;BME280;21743;55.786;37.168;2022-08-19T09:17:30;100416.38;;;25.90;41.13
35619;BME280;21743;55.786;37.168;2022-08-19T09:20:18;100417.81;;;26.05;41.47
35619;BME280;21743;55.786;37.168;2022-08-19T09:22:44;100408.78;;;26.17;41.18
35619;BME280;21743;55.786;37.168;2022-08-19T09:25:12;100412.16;;;26.24;40.85
35619;BME280;21743;55.786;37.168;2022-08-19T09:27:40;100399.28;;;26.21;40.91
35619;BME280;21743;55.786;37.168;2022-08-19T09:30:08;100405.66;;;26.20;40.66
35619;BME280;21743;55.786;37.168;2022-08-19T09:32:34;100401.72;;;26.11;41.86
35619;BME280;21743;55.786;37.168;2022-08-19T09:35:00;100412.72;;;26.15;41.62
35619;BME280;21743;55.786;37.168;2022-08-19T09:37:27;100417.09;;;25.98;41.77
35619;BME280;21743;55.786;37.168;2022-08-19T09:39:53;100408.59;;;25.89;42.97
35619;BME280;21743;55.786;37.168;2022-08-19T09:42:19;100412.69;;;26.03;42.09
35619;BME280;21743;55.786;37.168;2022-08-19T09:44:45;100409.34;;;26.08;42.02
35619;BME280;21743;55.786;37.168;2022-08-19T09:47:13;100405.44;;;26.22;42.26
35619;BME280;21743;55.786;37.168;2022-08-19T09:49:40;100403.47;;;26.29;41.73
35619;BME280;21743;55.786;37.168;2022-08-19T09:52:09;100413.25;;;26.35;41.64
35619;BME280;21743;55.786;37.168;2022-08-19T09:54:37;100400.03;;;26.40;41.39
35619;BME280;21743;55.786;37.168;2022-08-19T09:57:03;100404.44;;;26.46;40.68
35619;BME280;21743;55.786;37.168;2022-08-19T09:59:30;100419.19;;;26.49;40.37
35619;BME280;21743;55.786;37.168;2022-08-19T10:01:56;100409.31;;;26.38;41.13
35619;BME280;21743;55.786;37.168;2022-08-19T10:04:22;100408.97;;;26.34;40.96
35619;BME280;21743;55.786;37.168;2022-08-19T10:06:49;100415.69;;;26.37;40.91
35619;BME280;21743;55.786;37.168;2022-08-19T10:09:17;100419.28;;;26.31;40.11
35619;BME280;21743;55.786;37.168;2022-08-19T10:11:44;100423.06;;;26.23;40.89
35619;BME280;21743;55.786;37.168;2022-08-19T10:14:15;100402.75;;;26.22;40.36
35619;BME280;21743;55.786;37.168;2022-08-19T10:16:42;100412.88;;;26.32;40.68
35619;BME280;21743;55.786;37.168;2022-08-19T10:19:09;100405.00;;;26.37;40.68
35619;BME280;21743;55.786;37.168;2022-08-19T10:21:35;100407.91;;;26.47;40.10
35619;BME280;21743;55.786;37.168;2022-08-19T10:24:03;100426.38;;;26.48;38.34
35619;BME280;21743;55.786;37.168;2022-08-19T10:26:34;100414.66;;;26.38;37.73
35619;BME280;21743;55.786;37.168;2022-08-19T10:29:03;100422.53;;;26.33;37.29
35619;BME280;21743;55.786;37.168;2022-08-19T10:31:31;100417.41;;;26.31;37.76
35619;BME280;21743;55.786;37.168;2022-08-19T10:33:58;100425.69;;;26.41;36.97
35619;BME280;21743;55.786;37.168;2022-08-19T10:36:27;100426.59;;;26.47;36.48
35619;BME280;21743;55.786;37.168;2022-08-19T10:38:55;100409.53;;;26.48;36.29
35619;BME280;21743;55.786;37.168;2022-08-19T10:41:28;100425.31;;;26.49;36.78
35619;BME280;21743;55.786;37.168;2022-08-19T10:43:56;100426.94;;;26.50;35.43
35619;BME280;21743;55.786;37.168;2022-08-19T10:46:25;100424.16;;;26.45;35.84
35619;BME280;21743;55.786;37.168;2022-08-19T10:48:52;100429.03;;;26.48;35.84
35619;BME280;21743;55.786;37.168;2022-08-19T10:51:18;100410.47;;;26.53;34.92
35619;BME280;21743;55.786;37.168;2022-08-19T10:54:03;100417.31;;;26.61;35.40
35619;BME280;21743;55.786;37.168;2022-08-19T10:56:29;100432.50;;;26.60;35.31
35619;BME280;21743;55.786;37.168;2022-08-19T10:59:15;100418.50;;;26.53;35.43
35619;BME280;21743;55.786;37.168;2022-08-19T11:01:42;100437.75;;;26.67;35.23
35619;BME280;21743;55.786;37.168;2022-08-19T11:04:10;100427.31;;;26.66;35.46
35619;BME280;21743;55.786;37.168;2022-08-19T11:06:40;100422.66;;;26.61;35.58
35619;BME280;21743;55.786;37.168;2022-08-19T11:09:07;100420.13;;;26.54;36.72
35619;BME280;21743;55.786;37.168;2022-08-19T11:11:34;100423.69;;;26.48;36.47
35619;BME280;21743;55.786;37.168;2022-08-19T11:14:07;100425.19;;;26.44;36.28
35619;BME280;21743;55.786;37.168;2022-08-19T11:16:33;100411.41;;;26.36;35.99
35619;BME280;21743;55.786;37.168;2022-08-19T11:18:59;100413.94;;;26.31;35.76
35619;BME280;21743;55.786;37.168;2022-08-19T11:21:28;100409.41;;;26.31;35.84
35619;BME280;21743;55.786;37.168;2022-08-19T11:23:58;100413.84;;;26.37;35.66
35619;BME280;21743;55.786;37.168;2022-08-19T11:26:26;100414.28;;;26.46;35.00
35619;BME280;21743;55.786;37.168;2022-08-19T11:28:53;100415.69;;;26.48;34.92
35619;BME280;21743;55.786;37.168;2022-08-19T11:31:24;100408.97;;;26.57;34.23
35619;BME280;21743;55.786;37.168;2022-08-19T11:33:51;100410.13;;;26.61;34.46
35619;BME280;21743;55.786;37.168;2022-08-19T11:36:20;100405.59;;;26.62;34.29
35619;BME280;21743;55.786;37.168;2022-08-19T11:38:48;100414.88;;;26.59;31.51
35619;BME280;21743;55.786;37.168;2022-08-19T11:41:17;100426.84;;;26.57;30.54
35619;BME280;21743;55.786;37.168;2022-08-19T11:43:43;100425.19;;;26.44;28.61
35619;BME280;21743;55.786;37.168;2022-08-19T11:46:11;100425.19;;;26.33;27.43
35619;BME280;21743;55.786;37.168;2022-08-19T11:48:38;100427.22;;;26.19;27.78
35619;BME280;21743;55.786;37.168;2022-08-19T11:51:06;100422.13;;;26.17;27.70
35619;BME280;21743;55.786;37.168;2022-08-19T11:53:35;100431.31;;;26.21;28.60
35619;BME280;21743;55.786;37.168;2022-08-19T11:56:02;100417.16;;;26.21;27.48
35619;BME280;21743;55.786;37.168;2022-08-19T11:58:29;100437.91;;;26.19;27.30
35619;BME280;21743;55.786;37.168;2022-08-19T12:00:55;100427.91;;;26.14;27.29
35619;BME280;21743;55.786;37.168;2022-08-19T12:03:21;100427.91;;;26.14;27.79
35619;BME280;21743;55.786;37.168;2022-08-19T12:05:47;100431.63;;;26.13;27.86
35619;BME280;21743;55.786;37.168;2022-08-19T12:08:14;100430.09;;;26.06;27.94
35619;BME280;21743;55.786;37.168;2022-08-19T12:10:42;100431.75;;;26.07;27.76
35619;BME280;21743;55.786;37.168;2022-08-19T12:13:09;100431.59;;;26.02;27.34
35619;BME280;21743;55.786;37.168;2022-08-19T12:15:39;100416.03;;;25.99;27.95
35619;BME280;21743;55.786;37.168;2022-08-19T12:18:08;100429.88;;;26.07;28.69
35619;BME280;21743;55.786;37.168;2022-08-19T12:20:39;100419.56;;;26.11;29.35
35619;BME280;21743;55.786;37.168;2022-08-19T12:23:06;100406.25;;;26.11;29.37
35619;BME280;21743;55.786;37.168;2022-08-19T12:25:32;100419.34;;;26.12;29.82
35619;BME280;21743;55.786;37.168;2022-08-19T12:28:00;100410.03;;;26.15;30.03
35619;BME280;21743;55.786;37.168;2022-08-19T12:30:26;100410.19;;;26.20;30.05
35619;BME280;21743;55.786;37.168;2022-08-19T12:32:52;100404.72;;;26.15;30.22
35619;BME280;21743;55.786;37.168;2022-08-19T12:35:18;100415.75;;;26.18;30.22
35619;BME280;21743;55.786;37.168;2022-08-19T12:37:47;100408.69;;;26.12;29.95
35619;BME280;21743;55.786;37.168;2022-08-19T12:40:14;100411.78;;;26.09;30.28
35619;BME280;21743;55.786;37.168;2022-08-19T12:42:41;100402.97;;;26.09;30.71
35619;BME280;21743;55.786;37.168;2022-08-19T12:45:09;100404.94;;;26.13;31.25
35619;BME280;21743;55.786;37.168;2022-08-19T12:47:36;100407.97;;;26.17;31.12
35619;BME280;21743;55.786;37.168;2022-08-19T12:50:02;100396.47;;;26.16;31.38
35619;BME280;21743;55.786;37.168;2022-08-19T12:52:47;100399.28;;;26.10;32.00
35619;BME280;21743;55.786;37.168;2022-08-19T12:55:14;100404.59;;;26.10;32.08